createdAt,value
2019-03-29T00:00:08.782Z,41.80
2019-03-29T00:01:18.384Z,41.42
2019-03-29T00:02:22.876Z,41.70
2019-03-29T00:03:27.337Z,39.63
2019-03-29T00:04:32.124Z,38.40
2019-03-29T00:05:36.587Z,44.83
2019-03-29T00:06:41.050Z,44.85
2019-03-29T00:07:45.866Z,42.93
2019-03-29T00:08:50.323Z,37.60
2019-03-29T00:09:54.993Z,42.95
2019-03-29T00:10:59.446Z,43.78
2019-03-29T00:12:04.846Z,37.23
2019-03-29T00:13:09.962Z,43.42
2019-03-29T00:14:15.238Z,40.95
2019-03-29T00:15:20.273Z,42.58
2019-03-29T00:16:25.896Z,46.85
2019-03-29T00:17:30.906Z,45.83
2019-03-29T00:18:36.111Z,43.92
2019-03-29T00:19:41.131Z,44.93
2019-03-29T00:20:46.442Z,45.75
2019-03-29T00:21:51.901Z,46.70
2019-03-29T00:22:57.021Z,43.73
2019-03-29T00:24:06.906Z,42.48
2019-03-29T00:25:08.321Z,45.40
2019-03-29T00:26:12.781Z,46.18
2019-03-29T00:27:17.244Z,45.58
2019-03-29T00:28:21.723Z,47.50
2019-03-29T00:29:26.193Z,41.90
2019-03-29T00:30:30.653Z,41.42
2019-03-29T00:31:35.120Z,49.03
2019-03-29T00:32:41.543Z,47.10
2019-03-29T00:33:47.581Z,39.35
2019-03-29T00:34:52.065Z,42.05
2019-03-29T00:35:56.536Z,47.15
2019-03-29T00:37:00.991Z,45.80
2019-03-29T00:38:05.472Z,48.13
2019-03-29T00:39:09.938Z,47.08
2019-03-29T00:40:14.855Z,46.63
2019-03-29T00:41:19.616Z,46.75
2019-03-29T00:42:24.080Z,43.50
2019-03-29T00:43:28.570Z,47.38
2019-03-29T00:44:33.029Z,44.73
2019-03-29T00:45:37.831Z,48.28
2019-03-29T00:46:42.289Z,48.05
2019-03-29T00:47:46.772Z,42.48
2019-03-29T00:48:51.236Z,46.53
2019-03-29T00:49:55.699Z,48.02
2019-03-29T00:51:00.157Z,46.77
2019-03-29T00:52:04.630Z,46.05
2019-03-29T00:53:09.359Z,43.95
2019-03-29T00:54:13.857Z,47.43
2019-03-29T00:55:18.319Z,49.85
2019-03-29T00:56:23.056Z,42.75
2019-03-29T00:57:27.523Z,44.83
2019-03-29T00:58:32.004Z,48.35
2019-03-29T00:59:36.806Z,47.10
2019-03-29T01:00:41.271Z,43.48
2019-03-29T01:01:46.165Z,49.63
2019-03-29T01:02:50.630Z,51.83
2019-03-29T01:03:55.459Z,51.20
2019-03-29T01:04:59.916Z,48.98
2019-03-29T01:06:04.549Z,53.13
2019-03-29T01:07:08.985Z,52.58
2019-03-29T01:08:13.464Z,53.48
2019-03-29T01:09:18.230Z,53.02
2019-03-29T01:10:23.128Z,53.00
2019-03-29T01:11:27.744Z,54.83
2019-03-29T01:12:32.858Z,50.08
2019-03-29T01:13:37.373Z,52.23
2019-03-29T01:14:42.879Z,51.58
2019-03-29T01:15:47.367Z,59.23
2019-03-29T01:16:51.829Z,56.42
2019-03-29T01:17:57.368Z,51.40
2019-03-29T01:19:01.853Z,51.95
2019-03-29T01:20:07.968Z,54.20
2019-03-29T01:21:13.344Z,57.00
2019-03-29T01:22:18.557Z,57.53
2019-03-29T01:23:24.014Z,56.30
2019-03-29T01:24:28.585Z,56.37
2019-03-29T01:25:33.046Z,54.65
2019-03-29T01:26:37.803Z,65.15
2019-03-29T01:27:42.619Z,64.75
2019-03-29T01:28:47.392Z,61.80
2019-03-29T01:29:52.155Z,56.63
2019-03-29T01:30:56.617Z,65.08
2019-03-29T01:32:01.079Z,61.58
2019-03-29T01:33:05.544Z,64.35
2019-03-29T01:34:10.490Z,63.90
2019-03-29T01:35:15.016Z,62.20
2019-03-29T01:36:19.768Z,58.52
2019-03-29T01:37:25.301Z,58.40
2019-03-29T01:38:29.760Z,62.83
2019-03-29T01:39:34.246Z,62.08
2019-03-29T01:40:38.704Z,68.45
2019-03-29T01:41:43.574Z,63.48
2019-03-29T01:42:48.044Z,67.53
2019-03-29T01:43:52.819Z,68.07
2019-03-29T01:44:57.622Z,69.00
2019-03-29T01:46:02.089Z,62.38
2019-03-29T01:47:06.917Z,66.50
2019-03-29T01:48:11.384Z,66.55
2019-03-29T01:49:16.032Z,64.40
2019-03-29T01:50:20.807Z,57.15
2019-03-29T01:51:25.267Z,67.53
2019-03-29T01:52:31.606Z,65.50
2019-03-29T01:53:35.888Z,69.97
2019-03-29T01:54:40.368Z,66.57
2019-03-29T01:55:44.826Z,65.05
2019-03-29T01:56:49.292Z,61.90
2019-03-29T01:57:53.757Z,64.40
2019-03-29T01:58:58.245Z,61.15
2019-03-29T02:00:02.705Z,58.87
2019-03-29T02:01:08.328Z,60.50
2019-03-29T02:02:12.791Z,56.68
2019-03-29T02:03:17.577Z,60.55
2019-03-29T02:04:22.396Z,66.60
2019-03-29T02:05:27.705Z,61.95
2019-03-29T02:06:32.204Z,60.92
2019-03-29T02:07:38.072Z,61.88
2019-03-29T02:08:42.676Z,63.85
2019-03-29T02:09:47.164Z,61.68
2019-03-29T02:10:51.927Z,58.63
2019-03-29T02:11:56.744Z,63.63
2019-03-29T02:13:01.206Z,66.00
2019-03-29T02:14:05.687Z,61.42
2019-03-29T02:15:10.320Z,68.35
2019-03-29T02:16:14.939Z,66.85
2019-03-29T02:17:19.397Z,65.57
2019-03-29T02:18:23.861Z,66.60
2019-03-29T02:19:28.351Z,72.95
2019-03-29T02:20:32.814Z,62.98
2019-03-29T02:21:37.574Z,68.87
2019-03-29T02:22:42.068Z,71.10
2019-03-29T02:23:46.567Z,69.50
2019-03-29T02:24:51.027Z,74.17
2019-03-29T02:25:55.490Z,75.05
2019-03-29T02:27:00.978Z,73.72
2019-03-29T02:28:05.785Z,76.33
2019-03-29T02:29:11.010Z,75.70
2019-03-29T02:30:16.332Z,74.90
2019-03-29T02:31:25.231Z,77.12
2019-03-29T02:32:26.953Z,78.92
2019-03-29T02:33:31.453Z,78.07
2019-03-29T02:34:35.907Z,83.42
2019-03-29T02:35:40.371Z,85.12
2019-03-29T02:36:44.836Z,83.52
2019-03-29T02:37:49.305Z,75.60
2019-03-29T02:38:55.946Z,78.70
2019-03-29T02:40:00.686Z,80.87
2019-03-29T02:41:05.164Z,79.27
2019-03-29T02:42:09.626Z,84.37
2019-03-29T02:43:14.158Z,87.90
2019-03-29T02:44:18.624Z,83.97
2019-03-29T02:45:23.344Z,86.97
2019-03-29T02:46:27.879Z,87.17
2019-03-29T02:47:32.340Z,82.00
2019-03-29T02:48:37.235Z,84.62
2019-03-29T02:49:41.711Z,78.57
2019-03-29T02:50:46.174Z,84.95
2019-03-29T02:51:50.644Z,82.47
2019-03-29T02:52:55.514Z,75.60
2019-03-29T02:54:00.028Z,79.95
2019-03-29T02:55:06.429Z,81.02
2019-03-29T02:56:10.918Z,78.10
2019-03-29T02:57:15.376Z,82.70
2019-03-29T02:58:19.878Z,79.53
2019-03-29T02:59:24.344Z,82.08
2019-03-29T03:00:28.817Z,86.30
2019-03-29T03:01:33.444Z,82.92
2019-03-29T03:02:37.976Z,76.07
2019-03-29T03:03:42.475Z,86.42
2019-03-29T03:04:47.236Z,82.65
2019-03-29T03:05:51.698Z,82.57
2019-03-29T03:06:56.163Z,75.10
2019-03-29T03:08:00.637Z,81.97
2019-03-29T03:09:13.818Z,81.47
2019-03-29T03:10:13.226Z,83.40
2019-03-29T03:11:17.748Z,84.83
2019-03-29T03:12:22.579Z,75.95
2019-03-29T03:13:27.043Z,80.83
2019-03-29T03:14:31.543Z,85.57
2019-03-29T03:15:36.032Z,77.30
2019-03-29T03:16:40.821Z,84.92
2019-03-29T03:17:45.362Z,81.17
2019-03-29T03:18:49.822Z,80.65
2019-03-29T03:19:54.280Z,79.40
2019-03-29T03:20:58.740Z,85.53
2019-03-29T03:22:03.202Z,77.92
2019-03-29T03:23:07.993Z,76.82
2019-03-29T03:24:12.451Z,78.62
2019-03-29T03:25:16.918Z,75.30
2019-03-29T03:26:21.379Z,74.12
2019-03-29T03:27:25.938Z,74.47
2019-03-29T03:28:30.435Z,85.67
2019-03-29T03:29:34.862Z,79.92
2019-03-29T03:30:39.674Z,81.92
2019-03-29T03:31:44.152Z,82.17
2019-03-29T03:32:49.605Z,85.62
2019-03-29T03:33:54.446Z,84.95
2019-03-29T03:34:58.914Z,83.20
2019-03-29T03:36:03.381Z,79.53
2019-03-29T03:37:07.842Z,84.92
2019-03-29T03:38:12.348Z,80.97
2019-03-29T03:39:30.589Z,86.15
2019-03-29T03:40:22.954Z,75.45
2019-03-29T03:41:27.495Z,74.22
2019-03-29T03:42:31.978Z,78.78
2019-03-29T03:43:36.438Z,82.65
2019-03-29T03:44:40.903Z,84.47
2019-03-29T03:45:45.374Z,83.27
2019-03-29T03:46:49.844Z,84.25
2019-03-29T03:47:54.657Z,82.62
2019-03-29T03:48:59.394Z,79.12
2019-03-29T03:50:04.333Z,93.72
2019-03-29T03:51:08.861Z,91.85
2019-03-29T03:52:13.393Z,95.45
2019-03-29T03:53:17.889Z,90.12
2019-03-29T03:54:22.818Z,95.35
2019-03-29T03:55:27.815Z,94.35
2019-03-29T03:56:32.518Z,94.75
2019-03-29T03:57:38.858Z,94.50
2019-03-29T03:58:44.921Z,98.42
2019-03-29T03:59:50.630Z,95.35
2019-03-29T04:00:58.964Z,95.07
2019-03-29T04:02:03.752Z,99.72
2019-03-29T04:03:08.248Z,93.85
2019-03-29T04:04:12.710Z,94.28
2019-03-29T04:05:17.198Z,97.47
2019-03-29T04:06:21.640Z,85.70
2019-03-29T04:07:26.108Z,99.42
2019-03-29T04:08:30.674Z,96.53
2019-03-29T04:09:48.490Z,86.67
2019-03-29T04:10:42.262Z,92.97
2019-03-29T04:11:46.937Z,90.57
2019-03-29T04:12:51.438Z,94.85
2019-03-29T04:13:55.900Z,95.45
2019-03-29T04:15:00.761Z,101.15
2019-03-29T04:16:05.229Z,101.30
2019-03-29T04:17:09.872Z,95.28
2019-03-29T04:18:16.010Z,97.55
2019-03-29T04:19:20.528Z,98.30
2019-03-29T04:20:24.993Z,93.70
2019-03-29T04:21:29.456Z,95.60
2019-03-29T04:22:33.931Z,99.25
2019-03-29T04:23:38.429Z,102.05
2019-03-29T04:24:42.897Z,107.97
2019-03-29T04:25:47.437Z,96.60
2019-03-29T04:26:53.474Z,110.92
2019-03-29T04:27:57.946Z,102.95
2019-03-29T04:29:04.587Z,107.30
2019-03-29T04:30:09.196Z,96.10
2019-03-29T04:31:13.661Z,101.85
2019-03-29T04:32:18.490Z,102.07
2019-03-29T04:33:23.118Z,108.52
2019-03-29T04:34:28.030Z,102.60
2019-03-29T04:35:32.502Z,105.35
2019-03-29T04:36:36.983Z,101.70
2019-03-29T04:37:41.427Z,97.72
2019-03-29T04:38:46.286Z,107.78
2019-03-29T04:40:06.375Z,100.42
2019-03-29T04:40:56.926Z,114.60
2019-03-29T04:42:01.398Z,107.15
2019-03-29T04:43:05.873Z,109.52
2019-03-29T04:44:10.380Z,106.43
2019-03-29T04:45:14.984Z,115.17
2019-03-29T04:46:19.456Z,112.55
2019-03-29T04:47:24.227Z,118.08
2019-03-29T04:48:28.725Z,114.45
2019-03-29T04:49:33.558Z,109.22
2019-03-29T04:50:38.034Z,104.30
2019-03-29T04:51:42.502Z,107.63
2019-03-29T04:52:47.008Z,118.47
2019-03-29T04:53:52.483Z,104.30
2019-03-29T04:54:56.942Z,104.32
2019-03-29T04:56:01.743Z,110.00
2019-03-29T04:57:06.593Z,112.10
2019-03-29T04:58:11.353Z,118.13
2019-03-29T04:59:16.223Z,126.45
2019-03-29T05:00:20.848Z,124.65
2019-03-29T05:01:25.641Z,125.30
2019-03-29T05:02:31.220Z,123.70
2019-03-29T05:03:35.693Z,118.93
2019-03-29T05:04:40.161Z,126.12
2019-03-29T05:05:44.626Z,128.40
2019-03-29T05:06:49.173Z,121.02
2019-03-29T05:07:54.639Z,120.55
2019-03-29T05:08:59.104Z,125.55
2019-03-29T05:10:19.996Z,119.02
2019-03-29T05:11:11.096Z,119.05
2019-03-29T05:12:16.033Z,105.52
2019-03-29T05:13:20.823Z,111.00
2019-03-29T05:14:25.298Z,106.25
2019-03-29T05:15:29.765Z,113.60
2019-03-29T05:16:34.779Z,113.40
2019-03-29T05:17:39.286Z,116.53
2019-03-29T05:18:43.760Z,101.60
2019-03-29T05:19:48.263Z,109.57
2019-03-29T05:20:53.040Z,116.22
2019-03-29T05:21:57.500Z,110.15
2019-03-29T05:23:02.444Z,104.10
2019-03-29T05:24:07.944Z,101.92
2019-03-29T05:25:13.674Z,107.15
2019-03-29T05:26:18.148Z,99.80
2019-03-29T05:27:22.675Z,101.70
2019-03-29T05:28:27.136Z,98.07
2019-03-29T05:29:31.757Z,103.22
2019-03-29T05:30:36.225Z,100.82
2019-03-29T05:31:44.022Z,105.67
2019-03-29T05:32:48.526Z,102.42
2019-03-29T05:33:52.997Z,101.00
2019-03-29T05:34:57.467Z,101.02
2019-03-29T05:36:01.941Z,101.05
2019-03-29T05:37:06.423Z,98.25
2019-03-29T05:38:11.370Z,103.55
2019-03-29T05:39:15.831Z,101.50
2019-03-29T05:40:33.965Z,100.87
2019-03-29T05:41:34.792Z,95.37
2019-03-29T05:42:39.294Z,98.37
2019-03-29T05:43:43.763Z,87.67
2019-03-29T05:44:48.221Z,87.97
2019-03-29T05:45:52.686Z,91.65
2019-03-29T05:46:57.151Z,90.87
2019-03-29T05:48:01.942Z,88.67
2019-03-29T05:49:06.403Z,85.28
2019-03-29T05:50:11.210Z,85.38
2019-03-29T05:51:15.963Z,91.92
2019-03-29T05:52:20.828Z,80.17
2019-03-29T05:53:25.283Z,79.10
2019-03-29T05:54:30.038Z,80.55
2019-03-29T05:55:34.505Z,80.35
2019-03-29T05:56:38.977Z,85.53
2019-03-29T05:57:43.467Z,79.35
2019-03-29T05:58:47.936Z,81.15
2019-03-29T05:59:52.692Z,76.20
2019-03-29T06:00:57.147Z,82.08
2019-03-29T06:02:01.609Z,81.05
2019-03-29T06:03:09.809Z,81.63
2019-03-29T06:04:13.019Z,80.32
2019-03-29T06:05:17.797Z,80.15
2019-03-29T06:06:22.268Z,75.70
2019-03-29T06:07:27.727Z,83.10
2019-03-29T06:08:33.275Z,78.12
2019-03-29T06:09:37.735Z,75.87
2019-03-29T06:10:49.069Z,74.62
2019-03-29T06:11:48.500Z,78.40
2019-03-29T06:12:52.992Z,79.82
2019-03-29T06:13:57.784Z,79.40
2019-03-29T06:15:02.248Z,81.00
2019-03-29T06:16:06.718Z,81.02
2019-03-29T06:17:11.178Z,78.30
2019-03-29T06:18:15.675Z,77.12
2019-03-29T06:19:20.165Z,78.97
2019-03-29T06:20:24.629Z,76.12
2019-03-29T06:21:29.092Z,78.60
2019-03-29T06:22:33.591Z,70.15
2019-03-29T06:23:38.048Z,72.85
2019-03-29T06:24:42.835Z,79.60
2019-03-29T06:25:47.628Z,75.83
2019-03-29T06:26:52.099Z,72.53
2019-03-29T06:27:56.602Z,78.55
2019-03-29T06:29:01.051Z,81.02
2019-03-29T06:30:07.454Z,79.15
2019-03-29T06:31:11.988Z,83.27
2019-03-29T06:32:16.455Z,74.80
2019-03-29T06:33:20.944Z,76.95
2019-03-29T06:34:25.704Z,77.90
2019-03-29T06:35:33.069Z,81.45
2019-03-29T06:36:38.469Z,79.17
2019-03-29T06:37:44.591Z,77.90
2019-03-29T06:38:51.242Z,78.62
2019-03-29T06:39:56.831Z,177.00
2019-03-29T06:41:03.113Z,98.75
2019-03-29T06:42:08.448Z,78.20
2019-03-29T06:43:13.246Z,72.17
2019-03-29T06:44:18.065Z,75.55
2019-03-29T06:45:22.820Z,77.62
2019-03-29T06:46:27.605Z,70.78
2019-03-29T06:47:32.071Z,72.62
2019-03-29T06:48:36.569Z,70.15
2019-03-29T06:49:41.042Z,67.75
2019-03-29T06:50:46.803Z,76.90
2019-03-29T06:51:51.229Z,69.27
2019-03-29T06:52:56.013Z,76.75
2019-03-29T06:54:00.511Z,67.95
2019-03-29T06:55:05.828Z,68.97
2019-03-29T06:56:10.588Z,66.40
2019-03-29T06:57:15.388Z,68.83
2019-03-29T06:58:19.892Z,69.37
2019-03-29T06:59:24.393Z,70.32
2019-03-29T07:00:28.881Z,72.42
2019-03-29T07:01:34.610Z,72.40
2019-03-29T07:02:39.076Z,75.62
2019-03-29T07:03:43.583Z,70.55
2019-03-29T07:04:48.408Z,67.03
2019-03-29T07:05:52.881Z,68.35
2019-03-29T07:06:57.345Z,69.25
2019-03-29T07:08:01.815Z,66.42
2019-03-29T07:09:07.523Z,70.25
2019-03-29T07:10:12.405Z,63.75
2019-03-29T07:11:18.084Z,68.67
2019-03-29T07:12:22.783Z,68.40
2019-03-29T07:13:27.261Z,63.00
2019-03-29T07:14:31.764Z,64.90
2019-03-29T07:15:36.235Z,62.65
2019-03-29T07:16:42.046Z,62.15
2019-03-29T07:17:46.513Z,65.97
2019-03-29T07:18:51.014Z,65.08
2019-03-29T07:19:55.773Z,63.52
2019-03-29T07:21:00.243Z,63.87
2019-03-29T07:22:04.718Z,67.25
2019-03-29T07:23:09.180Z,66.10
2019-03-29T07:24:13.683Z,64.70
2019-03-29T07:25:19.413Z,58.40
2019-03-29T07:26:23.895Z,59.98
2019-03-29T07:27:28.365Z,61.80
2019-03-29T07:28:32.832Z,64.87
2019-03-29T07:29:37.315Z,63.80
2019-03-29T07:30:41.955Z,65.20
2019-03-29T07:31:46.733Z,206.35
2019-03-29T07:32:51.212Z,88.30
2019-03-29T07:33:55.679Z,61.33
2019-03-29T07:35:00.496Z,64.17
2019-03-29T07:36:04.969Z,63.60
2019-03-29T07:37:09.437Z,63.15
2019-03-29T07:38:13.900Z,64.53
2019-03-29T07:39:18.753Z,63.40
2019-03-29T07:40:23.243Z,63.35
2019-03-29T07:41:32.257Z,67.85
2019-03-29T07:42:33.879Z,66.55
2019-03-29T07:43:38.344Z,65.42
2019-03-29T07:44:42.813Z,75.00
2019-03-29T07:45:47.301Z,70.60
2019-03-29T07:46:51.765Z,66.33
2019-03-29T07:47:56.240Z,72.92
2019-03-29T07:49:01.105Z,68.35
2019-03-29T07:50:07.321Z,71.50
2019-03-29T07:51:11.785Z,69.90
2019-03-29T07:52:17.224Z,70.80
2019-03-29T07:53:22.021Z,65.10
2019-03-29T07:54:26.494Z,66.42
2019-03-29T07:55:30.982Z,68.20
2019-03-29T07:56:35.447Z,71.37
2019-03-29T07:57:39.921Z,70.30
2019-03-29T07:58:44.386Z,74.17
2019-03-29T07:59:48.847Z,70.62
2019-03-29T08:00:53.332Z,72.90
2019-03-29T08:01:57.808Z,71.95
2019-03-29T08:03:02.277Z,72.55
2019-03-29T08:04:06.744Z,78.92
2019-03-29T08:05:11.651Z,75.05
2019-03-29T08:06:16.137Z,80.80
2019-03-29T08:07:27.313Z,76.10
2019-03-29T08:08:32.344Z,76.47
2019-03-29T08:09:33.304Z,71.12
2019-03-29T08:10:37.774Z,72.45
2019-03-29T08:11:46.401Z,71.05
2019-03-29T08:12:49.416Z,69.65
2019-03-29T08:13:54.306Z,72.80
2019-03-29T08:14:59.024Z,68.07
2019-03-29T08:16:06.586Z,93.07
2019-03-29T08:17:09.849Z,70.50
2019-03-29T08:18:14.316Z,71.42
2019-03-29T08:19:18.783Z,72.65
2019-03-29T08:20:39.163Z,72.10
2019-03-29T08:21:29.934Z,71.30
2019-03-29T08:22:34.409Z,69.27
2019-03-29T08:23:40.249Z,74.17
2019-03-29T08:24:44.893Z,68.40
2019-03-29T08:25:49.361Z,65.10
2019-03-29T08:26:54.202Z,67.42
2019-03-29T08:27:58.956Z,65.85
2019-03-29T08:29:03.424Z,72.90
2019-03-29T08:30:08.028Z,70.12
2019-03-29T08:31:12.498Z,65.92
2019-03-29T08:32:16.985Z,64.40
2019-03-29T08:33:21.459Z,65.70
2019-03-29T08:34:26.300Z,70.28
2019-03-29T08:35:30.839Z,67.78
2019-03-29T08:36:36.657Z,64.42
2019-03-29T08:37:41.137Z,66.15
2019-03-29T08:38:45.989Z,62.93
2019-03-29T08:39:50.458Z,63.45
2019-03-29T08:40:55.324Z,61.73
2019-03-29T08:42:00.730Z,64.85
2019-03-29T08:43:06.468Z,61.55
2019-03-29T08:44:11.990Z,59.90
2019-03-29T08:45:17.579Z,58.92
2019-03-29T08:46:22.051Z,61.58
2019-03-29T08:47:26.537Z,59.98
2019-03-29T08:48:31.006Z,58.38
2019-03-29T08:49:35.476Z,60.92
2019-03-29T08:50:39.943Z,57.03
2019-03-29T08:51:44.745Z,56.63
2019-03-29T08:52:49.233Z,54.27
2019-03-29T08:53:53.711Z,52.33
2019-03-29T08:54:58.524Z,51.18
2019-03-29T08:56:02.999Z,51.40
2019-03-29T08:57:10.447Z,51.98
2019-03-29T08:58:13.658Z,52.03
2019-03-29T08:59:18.121Z,53.52
2019-03-29T09:00:32.956Z,50.40
2019-03-29T09:01:38.597Z,55.23
2019-03-29T09:02:43.391Z,54.55
2019-03-29T09:04:02.658Z,48.68
2019-03-29T09:04:54.197Z,50.55
2019-03-29T09:05:58.973Z,53.60
2019-03-29T09:07:03.448Z,49.58
2019-03-29T09:08:07.932Z,52.23
2019-03-29T09:09:12.469Z,49.53
2019-03-29T09:10:27.643Z,50.35
2019-03-29T09:11:32.466Z,52.88
2019-03-29T09:12:36.962Z,45.88
2019-03-29T09:13:41.420Z,49.08
2019-03-29T09:14:45.890Z,45.45
2019-03-29T09:15:50.752Z,47.38
2019-03-29T09:16:55.214Z,46.98
2019-03-29T09:18:00.123Z,40.80
2019-03-29T09:19:04.887Z,43.52
2019-03-29T09:20:10.726Z,39.65
2019-03-29T09:21:15.673Z,40.03
2019-03-29T09:22:20.142Z,41.48
2019-03-29T09:23:24.629Z,44.67
2019-03-29T09:24:29.096Z,41.18
2019-03-29T09:25:33.568Z,42.03
2019-03-29T09:26:38.032Z,44.88
2019-03-29T09:27:42.580Z,43.65
2019-03-29T09:28:47.365Z,42.05
2019-03-29T09:29:52.177Z,42.50
2019-03-29T09:30:56.899Z,40.28
2019-03-29T09:32:01.490Z,38.92
2019-03-29T09:33:05.975Z,34.92
2019-03-29T09:34:10.449Z,38.78
2019-03-29T09:35:14.915Z,33.83
2019-03-29T09:36:19.624Z,33.92
2019-03-29T09:37:24.117Z,33.73
2019-03-29T09:38:28.577Z,45.17
2019-03-29T09:39:33.049Z,32.10
2019-03-29T09:40:37.515Z,34.95
2019-03-29T09:41:41.991Z,37.08
2019-03-29T09:42:46.749Z,32.78
2019-03-29T09:43:54.098Z,33.88
2019-03-29T09:44:57.544Z,33.10
2019-03-29T09:46:03.468Z,34.08
2019-03-29T09:47:08.160Z,30.32
2019-03-29T09:48:12.632Z,33.73
2019-03-29T09:49:17.134Z,28.17
2019-03-29T09:50:23.088Z,33.83
2019-03-29T09:51:28.158Z,33.00
2019-03-29T09:52:32.621Z,24.87
2019-03-29T09:53:37.108Z,24.47
2019-03-29T09:54:41.573Z,25.97
2019-03-29T09:55:46.074Z,23.40
2019-03-29T09:56:50.512Z,32.98
2019-03-29T09:57:54.981Z,42.40
2019-03-29T09:58:59.489Z,29.40
2019-03-29T10:00:18.118Z,29.80
2019-03-29T10:01:12.790Z,27.52
2019-03-29T10:02:17.524Z,36.98
2019-03-29T10:03:22.328Z,36.13
2019-03-29T10:04:27.121Z,33.33
2019-03-29T10:05:31.821Z,25.62
2019-03-29T10:06:37.606Z,26.20
2019-03-29T10:07:42.065Z,23.73
2019-03-29T10:08:46.597Z,23.92
2019-03-29T10:09:52.037Z,38.05
2019-03-29T10:10:56.501Z,22.52
2019-03-29T10:12:00.969Z,22.35
2019-03-29T10:13:06.512Z,25.37
2019-03-29T10:14:11.002Z,31.15
2019-03-29T10:15:15.550Z,29.50
2019-03-29T10:16:20.345Z,33.67
2019-03-29T10:17:24.810Z,56.42
2019-03-29T10:18:29.684Z,37.25
2019-03-29T10:19:34.460Z,27.67
2019-03-29T10:20:38.932Z,32.90
2019-03-29T10:21:43.431Z,29.15
2019-03-29T10:22:48.872Z,31.15
2019-03-29T10:23:53.412Z,29.10
2019-03-29T10:25:02.174Z,27.00
2019-03-29T10:26:05.825Z,24.07
2019-03-29T10:27:10.295Z,23.70
2019-03-29T10:28:15.103Z,24.67
2019-03-29T10:29:19.601Z,35.88
2019-03-29T10:30:46.894Z,34.05
2019-03-29T10:31:50.744Z,23.05
2019-03-29T10:32:55.605Z,29.20
2019-03-29T10:34:00.402Z,42.85
2019-03-29T10:35:06.237Z,40.95
2019-03-29T10:36:10.702Z,32.00
2019-03-29T10:37:15.494Z,28.02
2019-03-29T10:38:19.963Z,27.67
2019-03-29T10:39:26.343Z,22.02
2019-03-29T10:40:30.616Z,20.72
2019-03-29T10:41:37.984Z,21.85
2019-03-29T10:42:41.256Z,39.73
2019-03-29T10:43:46.699Z,41.40
2019-03-29T10:44:51.469Z,25.72
2019-03-29T10:45:55.939Z,27.48
2019-03-29T10:47:04.945Z,28.46
2019-03-29T10:48:09.824Z,24.75
2019-03-29T10:49:14.309Z,22.77
2019-03-29T10:50:18.802Z,27.82
2019-03-29T10:51:23.272Z,24.05
2019-03-29T10:52:27.745Z,24.23
2019-03-29T10:53:33.180Z,22.48
2019-03-29T10:54:37.987Z,33.48
2019-03-29T10:55:42.837Z,21.30
2019-03-29T10:56:47.306Z,32.33
2019-03-29T10:57:51.767Z,19.82
2019-03-29T10:58:56.237Z,23.25
2019-03-29T11:00:00.728Z,23.38
2019-03-29T11:01:05.912Z,20.02
2019-03-29T11:02:10.445Z,29.85
2019-03-29T11:03:15.329Z,31.05
2019-03-29T11:04:20.078Z,23.32
2019-03-29T11:05:24.563Z,25.60
2019-03-29T11:06:29.033Z,36.05
2019-03-29T11:07:33.660Z,20.97
2019-03-29T11:08:38.294Z,20.75
2019-03-29T11:09:43.144Z,19.73
2019-03-29T11:10:47.624Z,19.27
2019-03-29T11:11:52.382Z,19.48
2019-03-29T11:13:11.363Z,19.92
2019-03-29T11:14:03.648Z,19.35
2019-03-29T11:15:08.671Z,18.75
2019-03-29T11:16:13.134Z,17.30
2019-03-29T11:17:17.600Z,18.07
2019-03-29T11:18:22.421Z,18.32
2019-03-29T11:19:26.889Z,25.05
2019-03-29T11:20:31.756Z,26.00
2019-03-29T11:21:36.233Z,19.32
2019-03-29T11:22:40.713Z,41.42
2019-03-29T11:23:45.171Z,14.47
2019-03-29T11:24:49.644Z,13.53
2019-03-29T11:25:55.286Z,28.50
2019-03-29T11:26:59.748Z,12.85
2019-03-29T11:28:04.286Z,11.83
2019-03-29T11:29:08.748Z,10.23
2019-03-29T11:30:13.209Z,12.98
2019-03-29T11:31:17.696Z,10.00
2019-03-29T11:32:22.153Z,6.90
2019-03-29T11:33:26.616Z,5.05
2019-03-29T11:34:31.075Z,5.92
2019-03-29T11:35:35.527Z,5.92
2019-03-29T11:36:40.008Z,7.40
2019-03-29T11:37:44.465Z,6.15
2019-03-29T11:38:48.920Z,8.20
2019-03-29T11:39:53.383Z,22.42
2019-03-29T11:40:57.867Z,12.50
2019-03-29T11:42:03.689Z,6.62
2019-03-29T11:43:08.639Z,11.05
2019-03-29T11:44:13.249Z,7.40
2019-03-29T11:45:17.711Z,64.60
2019-03-29T11:46:22.506Z,21.90
2019-03-29T11:47:26.955Z,9.75
2019-03-29T11:48:31.411Z,9.83
2019-03-29T11:49:35.866Z,9.58
2019-03-29T11:50:40.678Z,8.13
2019-03-29T11:51:45.474Z,13.35
2019-03-29T11:52:49.933Z,12.25
2019-03-29T11:53:54.398Z,10.07
2019-03-29T11:54:58.861Z,8.63
2019-03-29T11:56:03.333Z,7.00
2019-03-29T11:57:08.191Z,7.78
2019-03-29T11:58:12.714Z,6.03
2019-03-29T11:59:17.451Z,9.85
2019-03-29T12:00:24.953Z,6.22
2019-03-29T12:01:29.430Z,7.08
2019-03-29T12:02:34.167Z,7.53
2019-03-29T12:03:39.599Z,7.20
2019-03-29T12:04:44.091Z,6.45
2019-03-29T12:05:49.518Z,9.40
2019-03-29T12:06:53.997Z,7.42
2019-03-29T12:07:58.461Z,25.68
2019-03-29T12:09:02.931Z,16.15
2019-03-29T12:10:08.474Z,13.28
2019-03-29T12:11:13.016Z,12.45
2019-03-29T12:12:17.496Z,13.28
2019-03-29T12:13:21.957Z,6.78
2019-03-29T12:14:26.419Z,6.85
2019-03-29T12:15:30.881Z,17.75
2019-03-29T12:16:35.377Z,11.63
2019-03-29T12:17:39.898Z,8.23
2019-03-29T12:18:44.737Z,6.97
2019-03-29T12:19:50.165Z,7.92
2019-03-29T12:20:54.619Z,6.97
2019-03-29T12:21:59.383Z,6.05
2019-03-29T12:23:04.220Z,75.60
2019-03-29T12:24:08.690Z,11.28
2019-03-29T12:25:13.718Z,8.15
2019-03-29T12:26:18.180Z,10.40
2019-03-29T12:27:22.651Z,10.00
2019-03-29T12:28:27.407Z,7.47
2019-03-29T12:29:32.152Z,8.50
2019-03-29T12:30:37.134Z,9.20
2019-03-29T12:31:41.620Z,16.90
2019-03-29T12:32:46.079Z,9.55
2019-03-29T12:33:50.558Z,44.27
2019-03-29T12:34:55.400Z,17.77
2019-03-29T12:36:02.540Z,26.00
2019-03-29T12:37:07.022Z,16.15
2019-03-29T12:38:11.643Z,11.28
2019-03-29T12:39:16.106Z,31.57
2019-03-29T12:40:20.571Z,65.90
2019-03-29T12:42:45.469Z,17.60
2019-03-29T12:43:55.949Z,7.80
2019-03-29T12:44:56.087Z,8.83
2019-03-29T12:46:00.546Z,9.30
2019-03-29T12:47:05.011Z,19.95
2019-03-29T12:48:09.491Z,57.23
2019-03-29T12:49:13.959Z,36.45
2019-03-29T12:50:18.743Z,17.87
2019-03-29T12:51:23.502Z,32.88
2019-03-29T12:52:28.299Z,146.43
2019-03-29T12:53:32.793Z,30.60
2019-03-29T12:54:37.632Z,19.73
2019-03-29T12:55:42.104Z,12.90
2019-03-29T12:56:46.572Z,9.48
2019-03-29T12:57:51.034Z,10.28
2019-03-29T12:58:55.518Z,77.62
2019-03-29T12:59:59.980Z,35.38
2019-03-29T13:01:04.453Z,26.23
2019-03-29T13:02:08.979Z,21.27
2019-03-29T13:03:13.607Z,18.98
2019-03-29T13:04:18.093Z,13.88
2019-03-29T13:05:23.040Z,46.25
2019-03-29T13:06:27.867Z,23.67
2019-03-29T13:07:32.809Z,7.17
2019-03-29T13:08:38.289Z,13.65
2019-03-29T13:09:42.750Z,43.45
2019-03-29T13:10:47.660Z,26.80
2019-03-29T13:11:52.119Z,11.05
2019-03-29T13:13:00.210Z,14.13
2019-03-29T13:14:10.131Z,30.80
2019-03-29T13:15:09.880Z,22.40
2019-03-29T13:16:14.633Z,94.28
2019-03-29T13:17:19.549Z,34.08
2019-03-29T13:18:24.976Z,21.97
2019-03-29T13:19:29.777Z,42.27
2019-03-29T13:20:34.238Z,27.13
2019-03-29T13:21:39.050Z,9.15
2019-03-29T13:22:43.850Z,8.93
2019-03-29T13:23:48.324Z,6.92
2019-03-29T13:24:52.788Z,33.48
2019-03-29T13:25:57.552Z,14.00
2019-03-29T13:27:02.015Z,15.08
2019-03-29T13:28:06.486Z,10.58
2019-03-29T13:29:10.972Z,20.30
2019-03-29T13:30:17.368Z,12.47
2019-03-29T13:31:22.843Z,8.33
2019-03-29T13:32:27.303Z,19.50
2019-03-29T13:33:31.766Z,18.95
2019-03-29T13:34:36.268Z,49.77
2019-03-29T13:35:40.731Z,65.95
2019-03-29T13:36:45.209Z,20.68
2019-03-29T13:37:49.662Z,15.85
2019-03-29T13:38:54.148Z,40.52
2019-03-29T13:39:58.904Z,22.50
2019-03-29T13:41:06.737Z,24.47
2019-03-29T13:42:09.527Z,60.03
2019-03-29T13:43:14.301Z,31.70
2019-03-29T13:44:24.489Z,24.90
2019-03-29T13:45:27.853Z,10.20
2019-03-29T13:46:31.437Z,12.23
2019-03-29T13:47:36.643Z,8.25
2019-03-29T13:48:41.107Z,9.90
2019-03-29T13:49:45.587Z,10.55
2019-03-29T13:50:50.051Z,28.92
2019-03-29T13:51:54.898Z,15.88
2019-03-29T13:52:59.356Z,8.10
2019-03-29T13:54:04.140Z,8.48
2019-03-29T13:55:08.932Z,17.07
2019-03-29T13:56:13.405Z,11.18